This is the latest recevied weather packets stored in our database for station/object VY2CRA-4. If no packets are shown the sender has not sent any weather packets the latest 10 day(s).
| Time | Temp. | Humidity | Pressure | Rain* | Wind** | Luminosity | Snow |
|---|---|---|---|---|---|---|---|
| 1777980418 | 24.44° C | 23% | 1006.7 hPa | 0 mm | - | - | - |
| 1777979217 | 17.22° C | 44% | 1006.7 hPa | 0 mm | - | - | - |
| 1777978016 | 13.89° C | 52% | 1006.4 hPa | 0 mm | - | - | - |
| 1777975614 | 11.67° C | 56% | 1006 hPa | 0 mm | - | - | - |
| 1777974413 | 10.56° C | 59% | 1005.9 hPa | 0 mm | - | - | - |
| 1777973212 | 9.44° C | 58% | 1005.8 hPa | 0 mm | - | - | - |
| 1777972012 | 9.44° C | 57% | 1005.6 hPa | 0 mm | - | - | - |
| 1777970810 | 9.44° C | 57% | 1005.5 hPa | 0 mm | - | - | - |
| 1777969610 | 9.44° C | 57% | 1005.4 hPa | 0 mm | - | - | - |
| 1777968409 | 9.44° C | 57% | 1005.5 hPa | 0 mm | - | - | - |
| 1777967208 | 9.44° C | 56% | 1005.5 hPa | 0 mm | - | - | - |
| 1777966007 | 9.44° C | 56% | 1005.2 hPa | 0 mm | - | - | - |
| 1777964806 | 10° C | 55% | 1004.9 hPa | 0 mm | - | - | - |
| 1777963605 | 10° C | 55% | 1004.7 hPa | 0 mm | - | - | - |
| 1777962404 | 10.56° C | 55% | 1004.4 hPa | 0 mm | - | - | - |
| 1777961203 | 10.56° C | 55% | 1004.2 hPa | 0 mm | - | - | - |
| 1777960002 | 10.56° C | 54% | 1003.8 hPa | 0 mm | - | - | - |
| 1777958801 | 11.11° C | 53% | 1003.4 hPa | 0 mm | - | - | - |
| 1777957600 | 11.11° C | 53% | 1003.4 hPa | 0 mm | - | - | - |
| 1777956399 | 11.11° C | 51% | 1003.2 hPa | 0 mm | - | - | - |
| 1777955199 | 11.67° C | 50% | 1003 hPa | 0 mm | - | - | - |
| 1777953998 | 11.67° C | 48% | 1002.8 hPa | 0 mm | - | - | - |
| 1777952797 | 12.22° C | 46% | 1002.4 hPa | 0 mm | - | - | - |
| 1777951596 | 12.78° C | 44% | 1002.2 hPa | 0 mm | - | - | - |
| 1777950395 | 13.33° C | 42% | 1001.9 hPa | 0 mm | - | - | - |
* Rain since midnight (hover to see other rain measurements)
** Current wind speed in m/s (hover to see current wind gust speed)